Dades meteomassalio
Diari Summary for Octubre 10, 2017 Units:  English    Metric   Both
« Previous Day
Next Day »
Diari Semanal Mensual Anual Personalitzat
  Maxima: Minima: Mijana:
Temperatura: TemperatureC °F 3.9 °F 13.5 °F
Rosada: DewpointC °F -2.9 °F 2.2 °F
Humitat: Humidity % 24 % 50 %
Velocitat del vent: WindSpeedKMH mph 0.0 mph 1.6 mph
Racha vent: WindSpeedGustKMH mph - -
Vent:- - West
Pressio: PressurehPa in 1021.2 in -
Pluja: 0.0 in    
Historical Graphs
 
 
Tabular Data for Octubre 10, 2017
Time Temperature Dew Point Pressure Wind Wind Speed Wind Gust Humidity Rainfall Rate (Hourly) solar Conditions
TemperatureC °F DewpointC °F PressurehPa in Calm     Humidity % HourlyPrecipMM in SolarRadiationWatts/m^2 W/m2 Conditions
00:03 8.3 °F 0.8 °F 1022.6 in Calm     59 % 0.0 in 0.0 W/m2 CLR
00:09 8.3 °F 1.0 °F 1022.9 in Calm     60 % 0.0 in 0.0 W/m2 CLR
00:14 8.9 °F 1.8 °F 1022.6 in Calm     61 % 0.0 in 0.0 W/m2 CLR
00:19 8.9 °F 1.8 °F 1022.9 in Calm     61 % 0.0 in 0.0 W/m2 CLR
00:24 8.9 °F 1.8 °F 1022.6 in Calm     61 % 0.0 in 0.0 W/m2 CLR
00:29 8.9 °F 1.8 °F 1022.9 in Calm     61 % 0.0 in 0.0 W/m2 CLR
00:39 8.9 °F 1.8 °F 1022.6 in Calm     61 % 0.0 in 0.0 W/m2 CLR
00:44 8.3 °F 1.4 °F 1022.6 in Calm     62 % 0.0 in 0.0 W/m2 CLR
00:49 8.9 °F 2.0 °F 1022.9 in Calm     62 % 0.0 in 0.0 W/m2 CLR
00:54 8.9 °F 2.0 °F 1022.9 in Calm     62 % 0.0 in 0.0 W/m2 CLR
00:59 8.9 °F 2.2 °F 1022.9 in Calm     63 % 0.0 in 0.0 W/m2 CLR
01:04 8.9 °F 2.2 °F 1022.6 in Calm     63 % 0.0 in 0.0 W/m2 CLR
01:09 8.9 °F 2.2 °F 1022.6 in Calm     63 % 0.0 in 0.0 W/m2 CLR
01:10 8.3 °F 1.7 °F 1022.9 in Calm     63 % 0.0 in 0.0 W/m2 CLR
01:16 8.3 °F 1.7 °F 1022.6 in Calm     63 % 0.0 in 0.0 W/m2 CLR
01:26 7.8 °F 1.4 °F 1022.6 in Calm     64 % 0.0 in 0.0 W/m2 CLR
01:31 7.8 °F 1.4 °F 1022.6 in Calm     64 % 0.0 in 0.0 W/m2 CLR
01:36 7.8 °F 1.4 °F 1022.6 in Calm     64 % 0.0 in 0.0 W/m2 CLR
01:41 7.8 °F 1.6 °F 1022.6 in Calm     65 % 0.0 in 0.0 W/m2 CLR
01:46 7.8 °F 1.6 °F 1022.6 in Calm     65 % 0.0 in 0.0 W/m2 CLR
01:51 7.8 °F 1.6 °F 1022.6 in Calm     65 % 0.0 in 0.0 W/m2 CLR
01:56 7.8 °F 1.6 °F 1022.6 in Calm     65 % 0.0 in 0.0 W/m2 CLR
02:01 7.2 °F 1.1 °F 1022.6 in Calm     65 % 0.0 in 0.0 W/m2 CLR
02:06 7.8 °F 1.8 °F 1022.6 in Calm     66 % 0.0 in 0.0 W/m2 CLR
02:11 7.8 °F 1.8 °F 1022.6 in Calm     66 % 0.0 in 0.0 W/m2 CLR
02:16 8.3 °F 2.3 °F 1022.6 in Calm     66 % 0.0 in 0.0 W/m2 CLR
02:21 7.8 °F 2.1 °F 1022.6 in Calm     67 % 0.0 in 0.0 W/m2 CLR
02:26 7.8 °F 2.1 °F 1022.6 in Calm     67 % 0.0 in 0.0 W/m2 CLR
02:31 7.8 °F 2.1 °F 1022.6 in Calm     67 % 0.0 in 0.0 W/m2 CLR
02:36 7.8 °F 2.1 °F 1022.6 in Calm     67 % 0.0 in 0.0 W/m2 CLR
02:41 7.8 °F 2.2 °F 1022.6 in Calm     68 % 0.0 in 0.0 W/m2 CLR
02:46 7.8 °F 2.2 °F 1022.6 in Calm     68 % 0.0 in 0.0 W/m2 CLR
02:51 7.8 °F 2.2 °F 1022.6 in Calm     68 % 0.0 in 0.0 W/m2 CLR
02:56 7.8 °F 2.2 °F 1022.6 in Calm     68 % 0.0 in 0.0 W/m2 CLR
03:01 7.8 °F 2.4 °F 1022.6 in Calm     69 % 0.0 in 0.0 W/m2 CLR
03:06 7.8 °F 2.2 °F 1022.6 in Calm     68 % 0.0 in 0.0 W/m2 CLR
03:11 7.8 °F 2.2 °F 1022.6 in Calm     68 % 0.0 in 0.0 W/m2 CLR
03:16 7.8 °F 2.2 °F 1022.6 in Calm     68 % 0.0 in 0.0 W/m2 CLR
03:21 7.2 °F 1.7 °F 1022.6 in Calm     68 % 0.0 in 0.0 W/m2 CLR
03:26 7.2 °F 1.9 °F 1022.6 in Calm     69 % 0.0 in 0.0 W/m2 CLR
03:31 7.2 °F 1.9 °F 1022.6 in Calm     69 % 0.0 in 0.0 W/m2 CLR
03:36 7.2 °F 2.1 °F 1022.6 in Calm     70 % 0.0 in 0.0 W/m2 CLR
03:41 7.2 °F 2.1 °F 1022.6 in Calm     70 % 0.0 in 0.0 W/m2 CLR
03:46 7.2 °F 2.1 °F 1022.6 in Calm     70 % 0.0 in 0.0 W/m2 CLR
03:51 6.7 °F 1.6 °F 1022.6 in Calm     70 % 0.0 in 0.0 W/m2 CLR
04:01 6.1 °F 1.1 °F 1022.6 in Calm     70 % 0.0 in 0.0 W/m2 CLR
04:06 6.7 °F 1.6 °F 1022.6 in Calm     70 % 0.0 in 0.0 W/m2 CLR
04:11 7.2 °F 2.3 °F 1022.6 in Calm     71 % 0.0 in 0.0 W/m2 CLR
04:16 7.2 °F 2.3 °F 1022.6 in Calm     71 % 0.0 in 0.0 W/m2 CLR
04:21 6.7 °F 1.8 °F 1022.6 in Calm     71 % 0.0 in 0.0 W/m2 CLR
04:26 6.7 °F 2.0 °F 1022.6 in Calm     72 % 0.0 in 0.0 W/m2 CLR
04:31 6.7 °F 1.8 °F 1022.6 in Calm     71 % 0.0 in 0.0 W/m2 CLR
04:41 6.7 °F 1.8 °F 1022.6 in Calm     71 % 0.0 in 0.0 W/m2 CLR
04:46 6.7 °F 1.8 °F 1022.6 in Calm     71 % 0.0 in 0.0 W/m2 CLR
04:51 6.7 °F 2.0 °F 1022.6 in Calm     72 % 0.0 in 0.0 W/m2 CLR
04:56 6.7 °F 2.0 °F 1022.6 in Calm     72 % 0.0 in 0.0 W/m2 CLR
05:01 6.1 °F 1.1 °F 1022.6 in Calm     70 % 0.0 in 0.0 W/m2 CLR
05:06 6.1 °F 1.1 °F 1022.6 in Calm     70 % 0.0 in 0.0 W/m2 CLR
05:11 6.1 °F 1.2 °F 1022.6 in Calm     71 % 0.0 in 0.0 W/m2 CLR
05:16 6.1 °F 1.4 °F 1022.6 in Calm     72 % 0.0 in 0.0 W/m2 CLR
05:20 5.6 °F 0.9 °F 1022.6 in Calm     72 % 0.0 in 0.0 W/m2 CLR
05:21 5.6 °F 0.9 °F 1022.6 in Calm     72 % 0.0 in 0.0 W/m2 CLR
05:26 5.6 °F 0.9 °F 1022.2 in Calm     72 % 0.0 in 0.0 W/m2 CLR
05:31 5.6 °F 0.9 °F 1022.6 in Calm     72 % 0.0 in 0.0 W/m2 CLR
05:36 6.1 °F 1.4 °F 1022.6 in Calm     72 % 0.0 in 0.0 W/m2 CLR
05:41 6.1 °F 1.4 °F 1022.6 in Calm     72 % 0.0 in 0.0 W/m2 CLR
05:46 6.1 °F 1.4 °F 1022.6 in Calm     72 % 0.0 in 0.0 W/m2 CLR
05:51 5.6 °F 0.9 °F 1022.6 in Calm     72 % 0.0 in 0.0 W/m2 CLR
05:56 5.6 °F 1.1 °F 1022.6 in Calm     73 % 0.0 in 0.0 W/m2 CLR
06:01 5.6 °F 1.1 °F 1022.6 in Calm     73 % 0.0 in 0.0 W/m2 CLR
06:06 5.6 °F 0.7 °F 1022.6 in Calm     71 % 0.0 in 0.0 W/m2 CLR
06:11 5.6 °F 0.9 °F 1022.6 in Calm     72 % 0.0 in 0.0 W/m2 CLR
06:16 5.0 °F 0.6 °F 1022.6 in Calm     73 % 0.0 in 0.0 W/m2 CLR
06:21 5.0 °F 0.7 °F 1022.6 in Calm     74 % 0.0 in 0.0 W/m2 CLR
06:26 4.4 °F 0.2 °F 1022.6 in Calm     74 % 0.0 in 0.0 W/m2 CLR
06:36 5.0 °F 0.9 °F 1022.6 in Calm     75 % 0.0 in 0.0 W/m2 CLR
06:41 5.0 °F 0.7 °F 1022.6 in Calm     74 % 0.0 in 0.0 W/m2 CLR
06:46 4.4 °F 0.4 °F 1022.6 in Calm     75 % 0.0 in 0.0 W/m2 CLR
06:51 4.4 °F 0.6 °F 1022.6 in Calm     76 % 0.0 in 0.0 W/m2 CLR
06:56 4.4 °F 0.6 °F 1022.6 in Calm     76 % 0.0 in 0.0 W/m2 CLR
07:01 5.0 °F 1.1 °F 1022.6 in Calm     76 % 0.0 in 0.0 W/m2 CLR
07:06 5.0 °F 1.1 °F 1022.6 in Calm     76 % 0.0 in 0.0 W/m2 CLR
07:11 4.4 °F 0.4 °F 1022.6 in Calm     75 % 0.0 in 0.0 W/m2 CLR
07:16 4.4 °F 0.4 °F 1022.9 in Calm     75 % 0.0 in 0.0 W/m2 CLR
07:21 3.9 °F -0.2 °F 1022.9 in Calm     75 % 0.0 in 0.0 W/m2 CLR
07:26 3.9 °F 0.1 °F 1022.9 in Calm     76 % 0.0 in 0.0 W/m2 CLR
07:31 3.9 °F 0.1 °F 1022.9 in Calm     76 % 0.0 in 0.0 W/m2 CLR
07:36 3.9 °F -0.2 °F 1022.9 in Calm     75 % 0.0 in 0.0 W/m2 CLR
07:41 3.9 °F 0.1 °F 1022.9 in Calm     76 % 0.0 in 0.0 W/m2 CLR
07:46 4.4 °F 0.6 °F 1022.9 in Calm     76 % 0.0 in 0.0 W/m2 CLR
07:51 4.4 °F 0.6 °F 1022.9 in Calm     76 % 0.0 in 0.0 W/m2 CLR
07:56 4.4 °F 0.6 °F 1022.9 in Calm     76 % 0.0 in 0.0 W/m2 CLR
08:01 3.9 °F 0.1 °F 1023.2 in Calm     76 % 0.0 in 0.0 W/m2 OVC
08:06 3.9 °F 0.1 °F 1023.2 in Calm     76 % 0.0 in 5.0 W/m2 OVC
08:11 3.9 °F 0.2 °F 1023.2 in Calm     77 % 0.0 in 7.0 W/m2 BKN
08:21 4.4 °F 0.8 °F 1023.2 in Calm     77 % 0.0 in 12.0 W/m2 BKN
08:26 5.0 °F 1.5 °F 1023.6 in Calm     78 % 0.0 in 14.0 W/m2 BKN
08:31 5.6 °F 1.8 °F 1023.6 in Calm     77 % 0.0 in 16.0 W/m2 BKN
08:36 5.6 °F 1.7 °F 1023.6 in Calm     76 % 0.0 in 23.0 W/m2 BKN
08:41 5.6 °F 1.8 °F 1023.6 in Calm     77 % 0.0 in 32.0 W/m2 BKN
08:46 5.0 °F 0.9 °F 1023.6 in Calm     75 % 0.0 in 46.0 W/m2 BKN
08:51 5.0 °F 0.7 °F 1023.6 in Calm     74 % 0.0 in 42.0 W/m2 BKN
08:56 5.0 °F 0.6 °F 1023.6 in Calm     73 % 0.0 in 62.0 W/m2 SCT
09:01 5.0 °F 0.4 °F 1023.6 in Calm     72 % 0.0 in 60.0 W/m2 SCT
09:07 5.0 °F 0.2 °F 1023.9 in Calm     71 % 0.0 in 107.0 W/m2 FEW
09:12 5.6 °F 0.7 °F 1023.9 in Calm     71 % 0.0 in 116.0 W/m2 CLR
09:17 5.6 °F 0.3 °F 1023.9 in Calm     69 % 0.0 in 144.0 W/m2 CLR
09:22 5.6 °F -0.1 °F 1023.9 in Calm     67 % 0.0 in 123.0 W/m2 CLR
09:27 6.1 °F 0.2 °F 1023.9 in Calm     66 % 0.0 in 181.0 W/m2 CLR
09:32 6.1 °F 0.0 °F 1024.3 in Calm     65 % 0.0 in 199.0 W/m2 CLR
09:37 6.7 °F 0.6 °F 1024.3 in Calm     65 % 0.0 in 220.0 W/m2 CLR
09:42 7.2 °F 0.8 °F 1024.3 in Calm     64 % 0.0 in 236.0 W/m2 CLR
09:47 7.8 °F 0.9 °F 1024.3 in Calm     62 % 0.0 in 251.0 W/m2 CLR
09:57 8.9 °F 1.3 °F 1024.3 in Calm     59 % 0.0 in 285.0 W/m2 CLR
10:07 9.4 °F 0.8 °F 1024.3 in Calm     55 % 0.0 in 315.0 W/m2 CLR
10:12 10.0 °F 1.4 °F 1024.3 in Calm     55 % 0.0 in 327.0 W/m2 CLR
10:17 10.6 °F 1.6 °F 1024.3 in Calm     54 % 0.0 in 338.0 W/m2 CLR
10:22 11.1 °F 1.6 °F 1024.3 in Calm     52 % 0.0 in 357.0 W/m2 CLR
10:27 11.7 °F 1.8 °F 1024.3 in Calm     51 % 0.0 in 367.0 W/m2 CLR
10:32 12.2 °F 2.1 °F 1024.3 in Calm     50 % 0.0 in 385.0 W/m2 CLR
10:37 12.8 °F 2.9 °F 1024.3 in Calm     51 % 0.0 in 397.0 W/m2 CLR
10:42 13.3 °F 3.1 °F 1024.3 in Calm     50 % 0.0 in 411.0 W/m2 CLR
10:47 13.9 °F 3.6 °F 1024.3 in Calm     50 % 0.0 in 425.0 W/m2 CLR
10:52 14.4 °F 4.2 °F 1024.3 in Calm     50 % 0.0 in 438.0 W/m2 CLR
10:57 15.0 °F 4.1 °F 1024.3 in Calm     48 % 0.0 in 450.0 W/m2 CLR
11:02 15.6 °F 4.3 °F 1024.3 in Calm     47 % 0.0 in 462.0 W/m2 CLR
11:07 16.1 °F 4.5 °F 1024.3 in Calm     46 % 0.0 in 476.0 W/m2 CLR
11:12 16.7 °F 5.0 °F 1024.3 in Calm     46 % 0.0 in 489.0 W/m2 CLR
11:17 17.2 °F 4.8 °F 1023.9 in Calm     44 % 0.0 in 499.0 W/m2 CLR
11:22 17.8 °F 5.3 °F 1024.3 in Calm     44 % 0.0 in 510.0 W/m2 CLR
11:27 17.8 °F 5.3 °F 1024.3 in Calm     44 % 0.0 in 524.0 W/m2 CLR
11:32 18.3 °F 5.8 °F 1023.9 in Calm     44 % 0.0 in 533.0 W/m2 CLR
11:37 18.3 °F 5.5 °F 1023.9 in Calm     43 % 0.0 in 541.0 W/m2 CLR
11:42 18.9 °F 5.7 °F 1023.9 in Calm     42 % 0.0 in 554.0 W/m2 CLR
11:47 19.4 °F 6.2 °F 1023.9 in Calm     42 % 0.0 in 564.0 W/m2 CLR
11:52 19.4 °F 5.5 °F 1023.9 in Calm     40 % 0.0 in 573.0 W/m2 CLR
11:57 20.0 °F 6.0 °F 1023.9 in Calm     40 % 0.0 in 582.0 W/m2 CLR
12:02 20.0 °F 6.0 °F 1023.9 in Calm   0.2 mph 40 % 0.0 in 589.0 W/m2 CLR
12:07 20.6 °F 5.7 °F 1023.9 in SW 5.6 mph 5.6 mph 38 % 0.0 in 598.0 W/m2 CLR
12:12 21.1 °F 5.8 °F 1023.9 in WSW 7.4 mph 7.4 mph 37 % 0.0 in 605.0 W/m2 CLR
12:17 21.1 °F 5.4 °F 1023.9 in WNW 5.6 mph 5.6 mph 36 % 0.0 in 612.0 W/m2 CLR
12:22 21.1 °F 5.4 °F 1023.9 in SW 13.0 mph 13.0 mph 36 % 0.0 in 619.0 W/m2 CLR
12:27 21.7 °F 6.3 °F 1023.6 in Calm     37 % 0.0 in 624.0 W/m2 CLR
12:32 22.2 °F 6.4 °F 1023.9 in WSW 14.8 mph 14.8 mph 36 % 0.0 in 633.0 W/m2 CLR
12:37 22.2 °F 6.0 °F 1023.6 in SW 11.1 mph 11.1 mph 35 % 0.0 in 638.0 W/m2 CLR
12:42 22.8 °F 6.5 °F 1023.9 in WSW 8.0 mph 8.0 mph 35 % 0.0 in 645.0 W/m2 CLR
12:47 22.8 °F 6.5 °F 1023.6 in Calm   0.6 mph 35 % 0.0 in 649.0 W/m2 CLR
12:52 22.8 °F 6.5 °F 1023.6 in Calm     35 % 0.0 in 654.0 W/m2 CLR
12:57 22.8 °F 6.5 °F 1023.6 in South 9.3 mph 9.3 mph 35 % 0.0 in 659.0 W/m2 CLR
13:02 22.8 °F 6.1 °F 1023.6 in SE 7.4 mph 7.4 mph 34 % 0.0 in 664.0 W/m2 CLR
13:07 23.3 °F 6.6 °F 1023.6 in SW 13.0 mph 13.0 mph 34 % 0.0 in 668.0 W/m2 CLR
13:12 23.9 °F 7.5 °F 1023.6 in Calm   0.5 mph 35 % 0.0 in 668.0 W/m2 CLR
13:17 23.9 °F 7.1 °F 1023.6 in Calm     34 % 0.0 in 675.0 W/m2 CLR
13:22 23.9 °F 6.6 °F 1023.6 in WSW 13.0 mph 13.0 mph 33 % 0.0 in 675.0 W/m2 CLR
13:27 23.3 °F 6.2 °F 1023.2 in NW 11.1 mph 11.1 mph 33 % 0.0 in 677.0 W/m2 CLR
13:32 23.3 °F 5.7 °F 1023.2 in West 11.1 mph 11.1 mph 32 % 0.0 in 677.0 W/m2 CLR
13:37 23.3 °F 5.2 °F 1023.2 in WNW 13.0 mph 13.0 mph 31 % 0.0 in 679.0 W/m2 CLR
13:42 23.3 °F 5.2 °F 1023.2 in Calm     31 % 0.0 in 680.0 W/m2 CLR
13:47 23.3 °F 5.2 °F 1023.2 in West 5.6 mph 5.6 mph 31 % 0.0 in 684.0 W/m2 CLR
13:52 23.9 °F 5.7 °F 1023.2 in West 9.7 mph 9.7 mph 31 % 0.0 in 682.0 W/m2 CLR
13:57 23.9 °F 5.7 °F 1023.2 in West 7.4 mph 7.4 mph 31 % 0.0 in 680.0 W/m2 CLR
14:02 23.9 °F 5.3 °F 1022.9 in WNW 13.0 mph 13.0 mph 30 % 0.0 in 680.0 W/m2 CLR
14:07 23.3 °F 4.3 °F 1022.9 in West 11.1 mph 11.1 mph 29 % 0.0 in 677.0 W/m2 CLR
14:12 23.9 °F 4.3 °F 1022.9 in West 7.4 mph 7.4 mph 28 % 0.0 in 677.0 W/m2 CLR
14:22 23.9 °F 4.8 °F 1022.6 in West 7.4 mph 7.4 mph 29 % 0.0 in 671.0 W/m2 CLR
14:27 23.9 °F 5.3 °F 1022.6 in WNW 14.8 mph 14.8 mph 30 % 0.0 in 670.0 W/m2 CLR
14:32 23.9 °F 5.3 °F 1022.6 in WNW 11.1 mph 11.1 mph 30 % 0.0 in 666.0 W/m2 CLR
14:37 23.9 °F 5.3 °F 1022.6 in West 9.7 mph 9.7 mph 30 % 0.0 in 661.0 W/m2 CLR
14:42 24.4 °F 5.2 °F 1022.2 in NNE 4.8 mph 4.8 mph 29 % 0.0 in 656.0 W/m2 CLR
14:47 24.4 °F 5.2 °F 1022.2 in Calm     29 % 0.0 in 654.0 W/m2 CLR
14:53 24.4 °F 5.7 °F 1022.2 in West 5.6 mph 5.6 mph 30 % 0.0 in 649.0 W/m2 CLR
14:58 24.4 °F 5.2 °F 1022.2 in Calm     29 % 0.0 in 643.0 W/m2 CLR
15:03 25.0 °F 5.7 °F 1022.2 in Calm   0.2 mph 29 % 0.0 in 636.0 W/m2 CLR
15:08 24.4 °F 5.2 °F 1022.2 in NNW 1.9 mph   29 % 0.0 in 633.0 W/m2 CLR
15:13 24.4 °F 5.2 °F 1021.9 in NNE 5.6 mph 5.6 mph 29 % 0.0 in 626.0 W/m2 CLR
15:18 24.4 °F 5.2 °F 1021.9 in North 11.1 mph 11.1 mph 29 % 0.0 in 619.0 W/m2 CLR
15:23 24.4 °F 5.2 °F 1021.9 in NNW 5.6 mph 5.6 mph 29 % 0.0 in 610.0 W/m2 CLR
15:28 24.4 °F 5.2 °F 1021.9 in North 7.4 mph 7.4 mph 29 % 0.0 in 603.0 W/m2 CLR
15:33 25.0 °F 5.7 °F 1021.9 in Calm     29 % 0.0 in 594.0 W/m2 CLR
15:38 24.4 °F 5.2 °F 1021.9 in North 7.4 mph 7.4 mph 29 % 0.0 in 587.0 W/m2 CLR
15:43 25.0 °F 5.7 °F 1021.9 in Calm     29 % 0.0 in 577.0 W/m2 CLR
15:48 25.0 °F 5.7 °F 1021.6 in Calm     29 % 0.0 in 568.0 W/m2 CLR
15:53 25.0 °F 5.7 °F 1021.6 in Calm     29 % 0.0 in 561.0 W/m2 CLR
16:03 25.0 °F 4.7 °F 1021.6 in Calm     27 % 0.0 in 536.0 W/m2 CLR
16:08 25.0 °F 5.2 °F 1021.6 in North 6.4 mph 6.4 mph 28 % 0.0 in 527.0 W/m2 CLR
16:13 25.0 °F 4.7 °F 1021.6 in North 9.3 mph 9.3 mph 27 % 0.0 in 515.0 W/m2 CLR
16:18 25.0 °F 4.7 °F 1021.6 in North 9.3 mph 9.3 mph 27 % 0.0 in 504.0 W/m2 CLR
16:23 25.6 °F 5.7 °F 1021.6 in NNW 9.3 mph 9.3 mph 28 % 0.0 in 492.0 W/m2 CLR
16:28 25.6 °F 5.7 °F 1021.6 in NNW 1.6 mph   28 % 0.0 in 478.0 W/m2 CLR
16:29 25.0 °F 5.2 °F 1021.6 in NW 8.0 mph 8.0 mph 28 % 0.0 in 476.0 W/m2 CLR
16:34 25.6 °F 5.2 °F 1021.6 in North 5.6 mph 5.6 mph 27 % 0.0 in 466.0 W/m2 CLR
16:39 25.0 °F 5.2 °F 1021.6 in Calm     28 % 0.0 in 452.0 W/m2 CLR
16:44 25.6 °F 5.2 °F 1021.6 in NNE 9.3 mph 9.3 mph 27 % 0.0 in 439.0 W/m2 CLR
16:49 25.0 °F 4.7 °F 1021.2 in North 7.4 mph 7.4 mph 27 % 0.0 in 425.0 W/m2 CLR
16:54 25.6 °F 5.2 °F 1021.2 in North 3.7 mph 3.7 mph 27 % 0.0 in 413.0 W/m2 CLR
16:59 25.6 °F 5.2 °F 1021.2 in North 7.4 mph 7.4 mph 27 % 0.0 in 397.0 W/m2 CLR
17:04 25.6 °F 4.6 °F 1021.2 in NW 3.7 mph   26 % 0.0 in 387.0 W/m2 CLR
17:09 25.6 °F 4.6 °F 1021.2 in Calm   0.2 mph 26 % 0.0 in 369.0 W/m2 CLR
17:14 25.6 °F 4.6 °F 1021.2 in NNW 5.6 mph 5.6 mph 26 % 0.0 in 359.0 W/m2 CLR
17:19 25.6 °F 4.1 °F 1021.2 in Calm     25 % 0.0 in 345.0 W/m2 CLR
17:29 25.0 °F 3.6 °F 1021.2 in NNW 1.9 mph 1.9 mph 25 % 0.0 in 313.0 W/m2 CLR
17:34 25.0 °F 3.6 °F 1021.2 in NNW 9.3 mph 9.3 mph 25 % 0.0 in 302.0 W/m2 CLR
17:44 25.0 °F 3.6 °F 1021.2 in NW 5.6 mph 5.6 mph 25 % 0.0 in 265.0 W/m2 CLR
17:45 25.0 °F 3.6 °F 1021.2 in NNW 9.7 mph 9.7 mph 25 % 0.0 in 262.0 W/m2 CLR
17:50 24.4 °F 3.1 °F 1021.2 in NW 5.6 mph 5.6 mph 25 % 0.0 in 246.0 W/m2 CLR
17:55 24.4 °F 2.6 °F 1021.2 in North 5.6 mph 5.6 mph 24 % 0.0 in 229.0 W/m2 CLR
17:56 24.4 °F 2.6 °F 1021.2 in North 5.6 mph 5.6 mph 24 % 0.0 in 229.0 W/m2 CLR
18:01 24.4 °F 3.1 °F 1021.2 in NNW 7.4 mph 7.4 mph 25 % 0.0 in 207.0 W/m2 CLR
18:06 23.9 °F 2.7 °F 1021.2 in NW 8.0 mph 8.0 mph 25 % 0.0 in 190.0 W/m2 CLR
18:11 23.9 °F 2.7 °F 1021.2 in Calm   0.3 mph 25 % 0.0 in 172.0 W/m2 CLR
18:16 23.3 °F 2.2 °F 1021.2 in Calm     25 % 0.0 in 149.0 W/m2 CLR
18:21 22.2 °F 1.2 °F 1021.2 in NW 4.8 mph 4.8 mph 25 % 0.0 in 134.0 W/m2 CLR
18:26 21.7 °F 0.2 °F 1021.2 in NW 7.4 mph 7.4 mph 24 % 0.0 in 118.0 W/m2 CLR
18:31 21.7 °F 0.2 °F 1021.2 in Calm     24 % 0.0 in 100.0 W/m2 CLR
18:36 21.1 °F -0.3 °F 1021.2 in Calm     24 % 0.0 in 76.0 W/m2 FEW
18:41 20.6 °F -0.2 °F 1021.2 in Calm     25 % 0.0 in 65.0 W/m2 FEW
18:46 19.4 °F -1.1 °F 1021.2 in Calm     25 % 0.0 in 51.0 W/m2 SCT
18:51 18.9 °F -1.1 °F 1021.6 in Calm     26 % 0.0 in 40.0 W/m2 BKN
18:56 18.9 °F -1.1 °F 1021.6 in Calm     26 % 0.0 in 28.0 W/m2 BKN
19:01 18.3 °F -1.6 °F 1021.6 in Calm     26 % 0.0 in 19.0 W/m2 BKN
19:06 17.8 °F -2.0 °F 1021.6 in Calm     26 % 0.0 in 14.0 W/m2 BKN
19:11 17.2 °F -1.9 °F 1021.6 in Calm     27 % 0.0 in 12.0 W/m2 BKN
19:16 16.7 °F -2.4 °F 1021.6 in Calm     27 % 0.0 in 11.0 W/m2 BKN
19:21 16.1 °F -2.9 °F 1021.6 in Calm     27 % 0.0 in 7.0 W/m2 BKN
19:26 16.1 °F -2.4 °F 1021.6 in Calm     28 % 0.0 in 5.0 W/m2 OVC
19:31 15.6 °F -2.9 °F 1021.6 in Calm     28 % 0.0 in 0.0 W/m2 OVC
19:36 15.6 °F -2.4 °F 1021.6 in Calm     29 % 0.0 in 0.0 W/m2 OVC
19:41 15.6 °F -2.0 °F 1021.6 in Calm     30 % 0.0 in 0.0 W/m2 CLR
19:46 15.0 °F -2.0 °F 1021.9 in Calm     31 % 0.0 in 0.0 W/m2 CLR
19:51 15.6 °F -1.1 °F 1021.9 in Calm     32 % 0.0 in 0.0 W/m2 CLR
19:56 15.0 °F -1.2 °F 1021.9 in Calm     33 % 0.0 in 0.0 W/m2 CLR
20:01 15.0 °F -0.3 °F 1021.9 in Calm     35 % 0.0 in 0.0 W/m2 CLR
20:06 14.4 °F -0.4 °F 1021.9 in Calm     36 % 0.0 in 0.0 W/m2 CLR
20:11 13.9 °F -0.9 °F 1022.2 in Calm     36 % 0.0 in 0.0 W/m2 CLR
20:16 13.9 °F -0.2 °F 1022.2 in Calm     38 % 0.0 in 0.0 W/m2 CLR
20:21 13.9 °F -0.2 °F 1022.2 in Calm     38 % 0.0 in 0.0 W/m2 CLR
20:31 13.9 °F 0.5 °F 1022.2 in Calm     40 % 0.0 in 0.0 W/m2 CLR
20:36 13.9 °F 0.5 °F 1022.2 in Calm     40 % 0.0 in 0.0 W/m2 CLR
20:41 13.9 °F 0.8 °F 1022.6 in Calm     41 % 0.0 in 0.0 W/m2 CLR
20:46 13.3 °F 0.3 °F 1022.6 in Calm     41 % 0.0 in 0.0 W/m2 CLR
20:51 13.3 °F 0.7 °F 1022.6 in Calm     42 % 0.0 in 0.0 W/m2 CLR
20:56 12.8 °F 0.2 °F 1022.6 in Calm     42 % 0.0 in 0.0 W/m2 CLR
21:01 12.8 °F 0.5 °F 1022.6 in Calm     43 % 0.0 in 0.0 W/m2 CLR
21:06 12.2 °F 0.0 °F 1022.6 in Calm     43 % 0.0 in 0.0 W/m2 CLR
21:11 12.2 °F 0.0 °F 1022.9 in Calm     43 % 0.0 in 0.0 W/m2 CLR
21:17 11.7 °F -0.2 °F 1022.9 in Calm     44 % 0.0 in 0.0 W/m2 CLR
21:22 12.2 °F 0.6 °F 1022.9 in Calm     45 % 0.0 in 0.0 W/m2 CLR
21:27 12.2 °F 0.6 °F 1022.9 in Calm     45 % 0.0 in 0.0 W/m2 CLR
21:32 11.7 °F 0.1 °F 1022.9 in Calm     45 % 0.0 in 0.0 W/m2 CLR
21:37 11.7 °F 0.4 °F 1022.9 in Calm     46 % 0.0 in 0.0 W/m2 CLR
21:42 11.7 °F 1.0 °F 1022.9 in Calm     48 % 0.0 in 0.0 W/m2 CLR
21:47 11.7 °F 0.4 °F 1022.9 in Calm     46 % 0.0 in 0.0 W/m2 CLR
21:52 11.7 °F 0.4 °F 1022.9 in Calm     46 % 0.0 in 0.0 W/m2 CLR
21:57 11.7 °F 0.4 °F 1022.9 in Calm     46 % 0.0 in 0.0 W/m2 CLR
22:02 11.1 °F -0.1 °F 1023.2 in Calm     46 % 0.0 in 0.0 W/m2 CLR
22:07 11.1 °F -0.1 °F 1023.2 in Calm     46 % 0.0 in 0.0 W/m2 CLR
22:12 10.6 °F -0.6 °F 1023.2 in Calm     46 % 0.0 in 0.0 W/m2 CLR
22:17 10.6 °F -0.3 °F 1023.2 in Calm     47 % 0.0 in 0.0 W/m2 CLR
22:22 10.6 °F 0.0 °F 1023.2 in Calm     48 % 0.0 in 0.0 W/m2 CLR
22:27 10.0 °F -0.2 °F 1023.2 in Calm     49 % 0.0 in 0.0 W/m2 CLR
22:32 10.0 °F 0.1 °F 1023.2 in Calm     50 % 0.0 in 0.0 W/m2 CLR
22:37 10.0 °F 0.3 °F 1023.2 in Calm     51 % 0.0 in 0.0 W/m2 CLR
22:42 10.0 °F 0.6 °F 1023.6 in Calm     52 % 0.0 in 0.0 W/m2 CLR
22:47 10.0 °F 0.6 °F 1023.6 in Calm     52 % 0.0 in 0.0 W/m2 CLR
22:52 9.4 °F 0.1 °F 1023.6 in Calm     52 % 0.0 in 0.0 W/m2 CLR
22:57 9.4 °F 0.3 °F 1023.6 in Calm     53 % 0.0 in 0.0 W/m2 CLR
23:02 8.9 °F 0.1 °F 1023.6 in Calm     54 % 0.0 in 0.0 W/m2 CLR
23:07 8.9 °F 0.1 °F 1023.6 in Calm     54 % 0.0 in 0.0 W/m2 CLR
23:12 8.9 °F 0.3 °F 1023.6 in Calm     55 % 0.0 in 0.0 W/m2 CLR
23:17 8.9 °F 0.3 °F 1023.6 in Calm     55 % 0.0 in 0.0 W/m2 CLR
23:22 8.9 °F 0.3 °F 1023.6 in Calm     55 % 0.0 in 0.0 W/m2 CLR
23:27 9.4 °F 0.8 °F 1023.6 in Calm     55 % 0.0 in 0.0 W/m2 CLR
23:32 9.4 °F 0.8 °F 1023.6 in Calm     55 % 0.0 in 0.0 W/m2 CLR
23:37 9.4 °F 0.8 °F 1023.6 in Calm     55 % 0.0 in 0.0 W/m2 CLR
23:42 9.4 °F 1.1 °F 1023.9 in Calm     56 % 0.0 in 0.0 W/m2 CLR
23:47 9.4 °F 1.1 °F 1023.9 in Calm     56 % 0.0 in 0.0 W/m2 CLR
23:57 8.9 °F 1.1 °F 1023.9 in Calm     58 % 0.0 in 0.0 W/m2 CLR
Lo Temps de Massalio
Compliments of Weather Underground - 1.25 mb